メインページ
METAR-TAF:

METAR-TAF

空港 :

ガティノー, ケベック州, カナダ

緯度: 45-31N, 経度: 075-34W, 海抜: 64m

現時点の気象観測

当レポートは5時間30分前の01:00(UTC)に作成
無風
気温 6°C
湿度 93%
気圧 1017 hPa
視程: 24.1km
高度4700ftの曇り

METAR: CYND 040100Z 00000KT 15SM OVC047 06/05 A3003 RMK SC8 LAST STFD OBS/NEXT 041100 UTC SLP174

時間: 02:30 (06:30 UTC)

予報

当レポートは12時間52分前の17:38(UTC)に作成
予報は03日の 18時(UTC)から 04日の 01時(UTC)まで有効
北東の風 10kt
視程: 10km
高度2500ftの曇り
03日の 18時(UTC)から 03日の 23時(UTC)まで一時的に
視程: 10km
高度2000ftの曇り
小雨
03日の 2300時(UTC)から
東/北東の風 8kt
視程: 10km
高度2500ftの曇り
03日の 23時(UTC)から 04日の 01時(UTC)まで一時的に
視程: 9.7km
高度2000ftの曇り
小霧雨, 靄

TAF: CYND 031738Z 0318/0401 05010KT P6SM OVC025 TEMPO 0318/0323 P6SM -RA OVC020 FM032300 06008KT P6SM OVC025 TEMPO 0323/0401 6SM -DZ BR OVC020 RMK NXT FCST WILL BE ISSUED AT 041245Z

4,000以上の空港の気象観測と天気予報(METAR報とTAF報)

利用可能な観測所は地図上に黄色い丸と赤い丸で示す。

丸の上にカーソルを重ねると観測所名を参照できる。

次にクリックすると気象観測と天気予報を参照できる。

マップの切り替え:黒色「×」印の緑ボタンをクリックして拡大、「-」印の緑ボタンをクリックして縮小、緑色の三角印をクリックして隣りの地図に切り替え


METAR-TAF: